sensor_id;sensor_type;location;lat;lon;timestamp;temperature;humidity
54082;DHT22;39986;50.770;0.266;2022-08-19T00:00:26;19.20;99.90
54082;DHT22;39986;50.770;0.266;2022-08-19T00:02:53;19.20;99.90
54082;DHT22;39986;50.770;0.266;2022-08-19T00:05:19;19.10;99.90
54082;DHT22;39986;50.770;0.266;2022-08-19T00:08:10;19.10;99.90
54082;DHT22;39986;50.770;0.266;2022-08-19T00:10:36;19.10;99.90
54082;DHT22;39986;50.770;0.266;2022-08-19T00:13:02;19.10;99.90
54082;DHT22;39986;50.770;0.266;2022-08-19T00:15:30;19.10;99.90
54082;DHT22;39986;50.770;0.266;2022-08-19T00:17:55;19.10;99.90
54082;DHT22;39986;50.770;0.266;2022-08-19T00:20:21;19.10;99.90
54082;DHT22;39986;50.770;0.266;2022-08-19T00:22:47;19.10;99.90
54082;DHT22;39986;50.770;0.266;2022-08-19T00:25:14;19.10;99.90
54082;DHT22;39986;50.770;0.266;2022-08-19T00:27:40;19.10;99.90
54082;DHT22;39986;50.770;0.266;2022-08-19T00:30:06;19.10;99.90
54082;DHT22;39986;50.770;0.266;2022-08-19T00:32:32;19.10;99.90
54082;DHT22;39986;50.770;0.266;2022-08-19T00:35:00;19.10;99.90
54082;DHT22;39986;50.770;0.266;2022-08-19T00:37:26;19.00;99.90
54082;DHT22;39986;50.770;0.266;2022-08-19T00:39:53;19.00;99.90
54082;DHT22;39986;50.770;0.266;2022-08-19T00:42:20;19.10;99.90
54082;DHT22;39986;50.770;0.266;2022-08-19T00:44:47;19.00;99.90
54082;DHT22;39986;50.770;0.266;2022-08-19T00:47:13;19.00;99.90
54082;DHT22;39986;50.770;0.266;2022-08-19T00:49:46;19.00;99.90
54082;DHT22;39986;50.770;0.266;2022-08-19T00:52:22;19.00;99.90
54082;DHT22;39986;50.770;0.266;2022-08-19T00:54:49;19.00;99.90
54082;DHT22;39986;50.770;0.266;2022-08-19T00:57:18;19.00;99.90
54082;DHT22;39986;50.770;0.266;2022-08-19T00:59:48;19.00;99.90
54082;DHT22;39986;50.770;0.266;2022-08-19T01:02:18;19.00;99.90
54082;DHT22;39986;50.770;0.266;2022-08-19T01:04:43;19.00;99.90
54082;DHT22;39986;50.770;0.266;2022-08-19T01:07:09;19.00;99.90
54082;DHT22;39986;50.770;0.266;2022-08-19T01:09:35;19.00;99.90
54082;DHT22;39986;50.770;0.266;2022-08-19T01:12:01;19.00;99.90
54082;DHT22;39986;50.770;0.266;2022-08-19T01:14:27;19.00;99.90
54082;DHT22;39986;50.770;0.266;2022-08-19T01:16:55;19.00;99.90
54082;DHT22;39986;50.770;0.266;2022-08-19T01:19:29;19.00;99.90
54082;DHT22;39986;50.770;0.266;2022-08-19T01:22:08;19.00;99.90
54082;DHT22;39986;50.770;0.266;2022-08-19T01:24:37;19.00;99.90
54082;DHT22;39986;50.770;0.266;2022-08-19T01:27:07;18.90;99.90
54082;DHT22;39986;50.770;0.266;2022-08-19T01:29:33;18.90;99.90
54082;DHT22;39986;50.770;0.266;2022-08-19T01:32:02;18.80;99.90
54082;DHT22;39986;50.770;0.266;2022-08-19T01:34:28;18.90;99.90
54082;DHT22;39986;50.770;0.266;2022-08-19T01:36:53;18.90;99.90
54082;DHT22;39986;50.770;0.266;2022-08-19T01:39:23;18.90;99.90
54082;DHT22;39986;50.770;0.266;2022-08-19T01:41:50;18.90;99.90
54082;DHT22;39986;50.770;0.266;2022-08-19T01:44:16;18.90;99.90
54082;DHT22;39986;50.770;0.266;2022-08-19T01:46:47;18.90;99.90
54082;DHT22;39986;50.770;0.266;2022-08-19T01:49:13;18.90;99.90
54082;DHT22;39986;50.770;0.266;2022-08-19T01:51:39;18.90;99.90
54082;DHT22;39986;50.770;0.266;2022-08-19T01:54:05;19.00;99.90
54082;DHT22;39986;50.770;0.266;2022-08-19T01:56:31;18.90;99.90
54082;DHT22;39986;50.770;0.266;2022-08-19T01:59:03;19.00;99.90
54082;DHT22;39986;50.770;0.266;2022-08-19T02:01:29;19.00;99.90
54082;DHT22;39986;50.770;0.266;2022-08-19T02:03:58;19.00;99.90
54082;DHT22;39986;50.770;0.266;2022-08-19T02:06:24;18.90;99.90
54082;DHT22;39986;50.770;0.266;2022-08-19T02:08:50;19.00;99.90
54082;DHT22;39986;50.770;0.266;2022-08-19T02:11:22;18.90;99.90
54082;DHT22;39986;50.770;0.266;2022-08-19T02:13:52;18.90;99.90
54082;DHT22;39986;50.770;0.266;2022-08-19T02:16:19;18.90;99.90
54082;DHT22;39986;50.770;0.266;2022-08-19T02:18:46;18.90;99.90
54082;DHT22;39986;50.770;0.266;2022-08-19T02:21:14;18.90;99.90
54082;DHT22;39986;50.770;0.266;2022-08-19T02:23:41;18.90;99.90
54082;DHT22;39986;50.770;0.266;2022-08-19T02:26:08;18.90;99.90
54082;DHT22;39986;50.770;0.266;2022-08-19T02:28:34;18.90;99.90
54082;DHT22;39986;50.770;0.266;2022-08-19T02:30:59;18.90;99.90
54082;DHT22;39986;50.770;0.266;2022-08-19T02:33:26;18.90;99.90
54082;DHT22;39986;50.770;0.266;2022-08-19T02:35:52;18.90;99.90
54082;DHT22;39986;50.770;0.266;2022-08-19T02:38:17;18.90;99.90
54082;DHT22;39986;50.770;0.266;2022-08-19T02:41:17;18.90;99.90
54082;DHT22;39986;50.770;0.266;2022-08-19T02:43:43;18.90;99.90
54082;DHT22;39986;50.770;0.266;2022-08-19T02:46:23;18.80;99.90
54082;DHT22;39986;50.770;0.266;2022-08-19T02:48:51;18.90;99.90
54082;DHT22;39986;50.770;0.266;2022-08-19T02:51:21;18.90;99.90
54082;DHT22;39986;50.770;0.266;2022-08-19T02:53:47;18.90;99.90
54082;DHT22;39986;50.770;0.266;2022-08-19T02:56:13;18.90;99.90
54082;DHT22;39986;50.770;0.266;2022-08-19T02:58:40;18.90;99.90
54082;DHT22;39986;50.770;0.266;2022-08-19T03:01:06;18.90;99.90
54082;DHT22;39986;50.770;0.266;2022-08-19T03:03:32;18.90;99.90
54082;DHT22;39986;50.770;0.266;2022-08-19T03:06:11;18.90;99.90
54082;DHT22;39986;50.770;0.266;2022-08-19T03:08:43;18.90;99.90
54082;DHT22;39986;50.770;0.266;2022-08-19T03:11:26;18.80;99.90
54082;DHT22;39986;50.770;0.266;2022-08-19T03:13:52;18.80;99.90
54082;DHT22;39986;50.770;0.266;2022-08-19T03:16:20;18.80;99.90
54082;DHT22;39986;50.770;0.266;2022-08-19T03:18:46;18.80;99.90
54082;DHT22;39986;50.770;0.266;2022-08-19T03:21:18;18.80;99.90
54082;DHT22;39986;50.770;0.266;2022-08-19T03:23:44;18.90;99.90
54082;DHT22;39986;50.770;0.266;2022-08-19T03:26:10;18.80;99.90
54082;DHT22;39986;50.770;0.266;2022-08-19T03:28:36;18.80;99.90
54082;DHT22;39986;50.770;0.266;2022-08-19T03:31:12;18.80;99.90
54082;DHT22;39986;50.770;0.266;2022-08-19T03:33:38;18.80;99.90
54082;DHT22;39986;50.770;0.266;2022-08-19T03:36:09;18.80;99.90
54082;DHT22;39986;50.770;0.266;2022-08-19T03:38:37;18.70;99.90
54082;DHT22;39986;50.770;0.266;2022-08-19T03:41:11;18.70;99.90
54082;DHT22;39986;50.770;0.266;2022-08-19T03:43:38;18.70;99.90
54082;DHT22;39986;50.770;0.266;2022-08-19T03:46:06;18.70;99.90
54082;DHT22;39986;50.770;0.266;2022-08-19T03:48:33;18.70;99.90
54082;DHT22;39986;50.770;0.266;2022-08-19T03:50:59;18.70;99.90
54082;DHT22;39986;50.770;0.266;2022-08-19T03:53:27;18.80;99.90
54082;DHT22;39986;50.770;0.266;2022-08-19T03:55:54;18.80;99.90
54082;DHT22;39986;50.770;0.266;2022-08-19T03:58:20;18.80;99.90
54082;DHT22;39986;50.770;0.266;2022-08-19T04:00:46;18.80;99.90
54082;DHT22;39986;50.770;0.266;2022-08-19T04:03:11;18.80;99.90
54082;DHT22;39986;50.770;0.266;2022-08-19T04:05:37;18.90;99.90
54082;DHT22;39986;50.770;0.266;2022-08-19T04:08:28;18.90;99.90
54082;DHT22;39986;50.770;0.266;2022-08-19T04:10:54;18.90;99.90
54082;DHT22;39986;50.770;0.266;2022-08-19T04:13:19;18.90;99.90
54082;DHT22;39986;50.770;0.266;2022-08-19T04:15:46;18.90;99.90
54082;DHT22;39986;50.770;0.266;2022-08-19T04:18:12;19.00;99.90
54082;DHT22;39986;50.770;0.266;2022-08-19T04:20:46;19.00;99.90
54082;DHT22;39986;50.770;0.266;2022-08-19T04:23:13;19.00;99.90
54082;DHT22;39986;50.770;0.266;2022-08-19T04:25:42;19.00;99.90
54082;DHT22;39986;50.770;0.266;2022-08-19T04:28:10;19.00;99.90
54082;DHT22;39986;50.770;0.266;2022-08-19T04:30:41;19.10;99.90
54082;DHT22;39986;50.770;0.266;2022-08-19T04:33:07;19.10;99.90
54082;DHT22;39986;50.770;0.266;2022-08-19T04:35:41;19.10;99.90
54082;DHT22;39986;50.770;0.266;2022-08-19T04:38:08;19.10;99.90
54082;DHT22;39986;50.770;0.266;2022-08-19T04:40:40;19.10;99.90
54082;DHT22;39986;50.770;0.266;2022-08-19T04:43:25;19.10;99.90
54082;DHT22;39986;50.770;0.266;2022-08-19T04:45:51;19.00;99.90
54082;DHT22;39986;50.770;0.266;2022-08-19T04:48:17;19.00;99.90
54082;DHT22;39986;50.770;0.266;2022-08-19T04:50:45;19.00;99.90
54082;DHT22;39986;50.770;0.266;2022-08-19T04:53:10;19.00;99.90
54082;DHT22;39986;50.770;0.266;2022-08-19T04:55:39;19.00;99.90
54082;DHT22;39986;50.770;0.266;2022-08-19T04:58:06;18.90;99.90
54082;DHT22;39986;50.770;0.266;2022-08-19T05:00:32;18.90;99.90
54082;DHT22;39986;50.770;0.266;2022-08-19T05:02:58;18.90;99.90
54082;DHT22;39986;50.770;0.266;2022-08-19T05:05:23;19.00;99.90
54082;DHT22;39986;50.770;0.266;2022-08-19T05:07:49;19.00;99.90
54082;DHT22;39986;50.770;0.266;2022-08-19T05:10:15;19.00;99.90
54082;DHT22;39986;50.770;0.266;2022-08-19T05:12:40;19.00;99.90
54082;DHT22;39986;50.770;0.266;2022-08-19T05:15:07;19.00;99.90
54082;DHT22;39986;50.770;0.266;2022-08-19T05:17:34;19.00;99.90
54082;DHT22;39986;50.770;0.266;2022-08-19T05:20:00;19.00;99.90
54082;DHT22;39986;50.770;0.266;2022-08-19T05:22:45;19.10;99.90
54082;DHT22;39986;50.770;0.266;2022-08-19T05:25:14;19.10;99.90
54082;DHT22;39986;50.770;0.266;2022-08-19T05:27:41;19.10;99.90
54082;DHT22;39986;50.770;0.266;2022-08-19T05:30:32;19.10;99.90
54082;DHT22;39986;50.770;0.266;2022-08-19T05:32:59;19.20;99.90
54082;DHT22;39986;50.770;0.266;2022-08-19T05:35:25;19.20;99.90
54082;DHT22;39986;50.770;0.266;2022-08-19T05:37:51;19.20;99.90
54082;DHT22;39986;50.770;0.266;2022-08-19T05:40:19;19.30;99.90
54082;DHT22;39986;50.770;0.266;2022-08-19T05:42:45;19.30;99.90
54082;DHT22;39986;50.770;0.266;2022-08-19T05:45:11;19.30;99.90
54082;DHT22;39986;50.770;0.266;2022-08-19T05:47:37;19.30;99.90
54082;DHT22;39986;50.770;0.266;2022-08-19T05:50:03;19.40;99.90
54082;DHT22;39986;50.770;0.266;2022-08-19T05:52:29;19.40;99.90
54082;DHT22;39986;50.770;0.266;2022-08-19T05:54:55;19.40;99.90
54082;DHT22;39986;50.770;0.266;2022-08-19T05:57:21;19.40;99.90
54082;DHT22;39986;50.770;0.266;2022-08-19T05:59:47;19.40;99.90
54082;DHT22;39986;50.770;0.266;2022-08-19T06:02:13;19.40;99.90
54082;DHT22;39986;50.770;0.266;2022-08-19T06:04:40;19.50;99.90
54082;DHT22;39986;50.770;0.266;2022-08-19T06:07:08;19.50;99.90
54082;DHT22;39986;50.770;0.266;2022-08-19T06:09:33;19.60;99.90
54082;DHT22;39986;50.770;0.266;2022-08-19T06:11:59;19.70;99.90
54082;DHT22;39986;50.770;0.266;2022-08-19T06:14:35;19.90;99.90
54082;DHT22;39986;50.770;0.266;2022-08-19T06:17:01;19.90;99.90
54082;DHT22;39986;50.770;0.266;2022-08-19T06:19:29;20.10;99.90
54082;DHT22;39986;50.770;0.266;2022-08-19T06:21:56;20.40;99.90
54082;DHT22;39986;50.770;0.266;2022-08-19T06:24:25;20.70;99.90
54082;DHT22;39986;50.770;0.266;2022-08-19T06:26:52;20.80;99.90
54082;DHT22;39986;50.770;0.266;2022-08-19T06:29:20;20.80;99.90
54082;DHT22;39986;50.770;0.266;2022-08-19T06:31:48;20.90;99.90
54082;DHT22;39986;50.770;0.266;2022-08-19T06:34:15;21.10;99.90
54082;DHT22;39986;50.770;0.266;2022-08-19T06:36:46;21.10;99.90
54082;DHT22;39986;50.770;0.266;2022-08-19T06:39:15;21.10;99.90
54082;DHT22;39986;50.770;0.266;2022-08-19T06:41:44;21.20;99.90
54082;DHT22;39986;50.770;0.266;2022-08-19T06:44:11;21.40;99.90
54082;DHT22;39986;50.770;0.266;2022-08-19T06:46:38;21.50;99.90
54082;DHT22;39986;50.770;0.266;2022-08-19T06:49:04;21.50;99.90
54082;DHT22;39986;50.770;0.266;2022-08-19T06:51:30;21.40;99.90
54082;DHT22;39986;50.770;0.266;2022-08-19T06:53:58;21.30;99.90
54082;DHT22;39986;50.770;0.266;2022-08-19T06:56:26;21.20;99.90
54082;DHT22;39986;50.770;0.266;2022-08-19T06:58:59;21.20;99.90
54082;DHT22;39986;50.770;0.266;2022-08-19T07:01:26;21.20;99.90
54082;DHT22;39986;50.770;0.266;2022-08-19T07:03:52;21.30;99.90
54082;DHT22;39986;50.770;0.266;2022-08-19T07:06:19;21.30;99.90
54082;DHT22;39986;50.770;0.266;2022-08-19T07:08:48;21.30;99.90
54082;DHT22;39986;50.770;0.266;2022-08-19T07:11:16;21.40;99.90
54082;DHT22;39986;50.770;0.266;2022-08-19T07:13:46;21.40;99.90
54082;DHT22;39986;50.770;0.266;2022-08-19T07:16:16;21.40;99.90
54082;DHT22;39986;50.770;0.266;2022-08-19T07:18:42;21.30;99.90
54082;DHT22;39986;50.770;0.266;2022-08-19T07:21:15;21.30;99.90
54082;DHT22;39986;50.770;0.266;2022-08-19T07:23:43;21.20;99.90
54082;DHT22;39986;50.770;0.266;2022-08-19T07:26:14;21.10;99.90
54082;DHT22;39986;50.770;0.266;2022-08-19T07:28:41;21.20;99.90
54082;DHT22;39986;50.770;0.266;2022-08-19T07:31:12;21.20;99.90
54082;DHT22;39986;50.770;0.266;2022-08-19T07:33:39;21.20;99.90
54082;DHT22;39986;50.770;0.266;2022-08-19T07:36:07;21.10;99.90
54082;DHT22;39986;50.770;0.266;2022-08-19T07:38:33;21.10;99.90
54082;DHT22;39986;50.770;0.266;2022-08-19T07:41:00;21.10;99.90
54082;DHT22;39986;50.770;0.266;2022-08-19T07:43:27;21.10;99.90
54082;DHT22;39986;50.770;0.266;2022-08-19T07:45:54;21.10;99.90
54082;DHT22;39986;50.770;0.266;2022-08-19T07:48:25;21.10;99.90
54082;DHT22;39986;50.770;0.266;2022-08-19T07:50:59;21.00;99.90
54082;DHT22;39986;50.770;0.266;2022-08-19T07:53:27;21.00;99.90
54082;DHT22;39986;50.770;0.266;2022-08-19T07:55:53;21.00;99.90
54082;DHT22;39986;50.770;0.266;2022-08-19T07:58:21;21.00;99.90
54082;DHT22;39986;50.770;0.266;2022-08-19T08:00:49;21.00;99.90
54082;DHT22;39986;50.770;0.266;2022-08-19T08:03:18;21.00;99.90
54082;DHT22;39986;50.770;0.266;2022-08-19T08:05:45;20.90;99.90
54082;DHT22;39986;50.770;0.266;2022-08-19T08:08:30;20.90;99.90
54082;DHT22;39986;50.770;0.266;2022-08-19T08:11:19;20.90;99.90
54082;DHT22;39986;50.770;0.266;2022-08-19T08:13:45;21.30;99.90
54082;DHT22;39986;50.770;0.266;2022-08-19T08:16:11;21.60;99.90
54082;DHT22;39986;50.770;0.266;2022-08-19T08:18:36;21.60;99.90
54082;DHT22;39986;50.770;0.266;2022-08-19T08:21:06;21.60;99.90
54082;DHT22;39986;50.770;0.266;2022-08-19T08:23:32;21.70;99.90
54082;DHT22;39986;50.770;0.266;2022-08-19T08:25:59;21.90;99.90
54082;DHT22;39986;50.770;0.266;2022-08-19T08:28:26;22.00;99.90
54082;DHT22;39986;50.770;0.266;2022-08-19T08:30:52;22.30;99.90
54082;DHT22;39986;50.770;0.266;2022-08-19T08:33:24;22.30;99.90
54082;DHT22;39986;50.770;0.266;2022-08-19T08:35:50;22.30;99.90
54082;DHT22;39986;50.770;0.266;2022-08-19T08:38:15;22.40;99.90
54082;DHT22;39986;50.770;0.266;2022-08-19T08:40:57;22.50;99.90
54082;DHT22;39986;50.770;0.266;2022-08-19T08:43:37;22.60;99.90
54082;DHT22;39986;50.770;0.266;2022-08-19T08:46:29;22.60;99.90
54082;DHT22;39986;50.770;0.266;2022-08-19T08:49:03;22.60;99.90
54082;DHT22;39986;50.770;0.266;2022-08-19T08:51:40;22.70;99.90
54082;DHT22;39986;50.770;0.266;2022-08-19T08:54:09;22.80;99.90
54082;DHT22;39986;50.770;0.266;2022-08-19T08:56:38;23.00;99.90
54082;DHT22;39986;50.770;0.266;2022-08-19T08:59:14;23.20;99.90
54082;DHT22;39986;50.770;0.266;2022-08-19T09:01:42;23.00;99.90
54082;DHT22;39986;50.770;0.266;2022-08-19T09:04:11;22.50;99.90
54082;DHT22;39986;50.770;0.266;2022-08-19T09:09:49;22.00;99.90
54082;DHT22;39986;50.770;0.266;2022-08-19T09:15:06;22.00;99.90
54082;DHT22;39986;50.770;0.266;2022-08-19T09:17:34;21.90;99.90
54082;DHT22;39986;50.770;0.266;2022-08-19T09:22:34;22.00;99.90
54082;DHT22;39986;50.770;0.266;2022-08-19T09:25:01;22.20;99.90
54082;DHT22;39986;50.770;0.266;2022-08-19T09:27:28;22.30;99.90
54082;DHT22;39986;50.770;0.266;2022-08-19T09:29:54;22.20;99.90
54082;DHT22;39986;50.770;0.266;2022-08-19T09:32:21;22.00;99.90
54082;DHT22;39986;50.770;0.266;2022-08-19T09:34:48;22.10;99.90
54082;DHT22;39986;50.770;0.266;2022-08-19T09:37:14;22.00;99.90
54082;DHT22;39986;50.770;0.266;2022-08-19T09:39:40;21.90;99.90
54082;DHT22;39986;50.770;0.266;2022-08-19T09:42:07;21.90;99.90
54082;DHT22;39986;50.770;0.266;2022-08-19T09:44:38;22.00;99.90
54082;DHT22;39986;50.770;0.266;2022-08-19T09:47:05;22.40;99.90
54082;DHT22;39986;50.770;0.266;2022-08-19T09:49:30;22.60;99.90
54082;DHT22;39986;50.770;0.266;2022-08-19T09:51:56;23.00;99.90
54082;DHT22;39986;50.770;0.266;2022-08-19T09:54:22;23.10;99.90
54082;DHT22;39986;50.770;0.266;2022-08-19T09:56:48;23.30;99.90
54082;DHT22;39986;50.770;0.266;2022-08-19T09:59:14;23.40;99.90
54082;DHT22;39986;50.770;0.266;2022-08-19T10:01:40;23.60;99.90
54082;DHT22;39986;50.770;0.266;2022-08-19T10:04:05;23.60;99.90
54082;DHT22;39986;50.770;0.266;2022-08-19T10:06:35;23.60;99.90
54082;DHT22;39986;50.770;0.266;2022-08-19T10:09:03;23.40;99.90
54082;DHT22;39986;50.770;0.266;2022-08-19T10:11:32;23.20;99.90
54082;DHT22;39986;50.770;0.266;2022-08-19T10:13:59;23.10;99.90
54082;DHT22;39986;50.770;0.266;2022-08-19T10:16:28;23.30;99.90
54082;DHT22;39986;50.770;0.266;2022-08-19T10:18:57;23.40;99.90
54082;DHT22;39986;50.770;0.266;2022-08-19T10:21:28;23.40;99.90
54082;DHT22;39986;50.770;0.266;2022-08-19T10:23:57;23.40;99.90
54082;DHT22;39986;50.770;0.266;2022-08-19T10:26:28;23.80;99.90
54082;DHT22;39986;50.770;0.266;2022-08-19T10:28:55;24.00;99.90
54082;DHT22;39986;50.770;0.266;2022-08-19T10:31:27;24.40;99.90
54082;DHT22;39986;50.770;0.266;2022-08-19T10:33:54;24.80;99.90
54082;DHT22;39986;50.770;0.266;2022-08-19T10:36:25;25.80;99.90
54082;DHT22;39986;50.770;0.266;2022-08-19T10:38:52;25.80;99.90
54082;DHT22;39986;50.770;0.266;2022-08-19T10:41:21;25.20;99.90
54082;DHT22;39986;50.770;0.266;2022-08-19T10:43:51;24.60;99.90
54082;DHT22;39986;50.770;0.266;2022-08-19T10:46:20;24.20;99.90
54082;DHT22;39986;50.770;0.266;2022-08-19T10:48:47;24.10;99.90
54082;DHT22;39986;50.770;0.266;2022-08-19T10:51:14;24.40;99.90
54082;DHT22;39986;50.770;0.266;2022-08-19T10:53:59;24.80;99.90
54082;DHT22;39986;50.770;0.266;2022-08-19T10:56:26;25.40;99.90
54082;DHT22;39986;50.770;0.266;2022-08-19T10:59:10;26.00;99.90
54082;DHT22;39986;50.770;0.266;2022-08-19T11:01:40;27.10;99.90
54082;DHT22;39986;50.770;0.266;2022-08-19T11:04:06;27.00;99.90
54082;DHT22;39986;50.770;0.266;2022-08-19T11:06:35;26.70;99.90
54082;DHT22;39986;50.770;0.266;2022-08-19T11:09:02;26.50;99.90
54082;DHT22;39986;50.770;0.266;2022-08-19T11:11:28;27.60;99.90
54082;DHT22;39986;50.770;0.266;2022-08-19T11:13:54;29.10;99.90
54082;DHT22;39986;50.770;0.266;2022-08-19T11:16:22;29.00;99.90
54082;DHT22;39986;50.770;0.266;2022-08-19T11:18:53;28.10;99.90
54082;DHT22;39986;50.770;0.266;2022-08-19T11:21:22;26.80;99.90
54082;DHT22;39986;50.770;0.266;2022-08-19T11:23:51;25.60;99.90
54082;DHT22;39986;50.770;0.266;2022-08-19T11:26:18;24.90;99.90
54082;DHT22;39986;50.770;0.266;2022-08-19T11:28:44;24.10;99.90
54082;DHT22;39986;50.770;0.266;2022-08-19T11:31:19;23.50;99.90
54082;DHT22;39986;50.770;0.266;2022-08-19T11:33:46;22.90;99.90
54082;DHT22;39986;50.770;0.266;2022-08-19T11:36:12;22.40;99.90
54082;DHT22;39986;50.770;0.266;2022-08-19T11:38:38;22.00;99.90
54082;DHT22;39986;50.770;0.266;2022-08-19T11:41:06;21.80;99.90
54082;DHT22;39986;50.770;0.266;2022-08-19T11:43:36;21.70;99.90
54082;DHT22;39986;50.770;0.266;2022-08-19T11:46:07;21.50;99.90
54082;DHT22;39986;50.770;0.266;2022-08-19T11:48:34;21.30;99.90
54082;DHT22;39986;50.770;0.266;2022-08-19T11:51:04;21.20;99.90
54082;DHT22;39986;50.770;0.266;2022-08-19T11:53:32;21.30;99.90
54082;DHT22;39986;50.770;0.266;2022-08-19T11:55:58;21.50;99.90
54082;DHT22;39986;50.770;0.266;2022-08-19T11:58:24;21.70;99.90
54082;DHT22;39986;50.770;0.266;2022-08-19T12:00:51;21.80;99.90
54082;DHT22;39986;50.770;0.266;2022-08-19T12:03:17;21.90;99.90
54082;DHT22;39986;50.770;0.266;2022-08-19T12:05:44;22.00;99.90
54082;DHT22;39986;50.770;0.266;2022-08-19T12:08:12;22.10;99.90
54082;DHT22;39986;50.770;0.266;2022-08-19T12:10:41;22.30;99.90
54082;DHT22;39986;50.770;0.266;2022-08-19T12:13:08;22.60;99.90
54082;DHT22;39986;50.770;0.266;2022-08-19T12:15:38;22.80;99.90
54082;DHT22;39986;50.770;0.266;2022-08-19T12:18:07;23.70;99.90
54082;DHT22;39986;50.770;0.266;2022-08-19T12:20:38;23.90;99.90
54082;DHT22;39986;50.770;0.266;2022-08-19T12:23:05;24.00;99.90
54082;DHT22;39986;50.770;0.266;2022-08-19T12:25:32;24.00;99.90
54082;DHT22;39986;50.770;0.266;2022-08-19T12:27:58;23.90;99.90
54082;DHT22;39986;50.770;0.266;2022-08-19T12:30:25;23.40;99.90
54082;DHT22;39986;50.770;0.266;2022-08-19T12:32:50;22.90;99.90
54082;DHT22;39986;50.770;0.266;2022-08-19T12:35:17;22.50;99.90
54082;DHT22;39986;50.770;0.266;2022-08-19T12:37:46;23.30;99.90
54082;DHT22;39986;50.770;0.266;2022-08-19T12:40:12;23.70;99.90
54082;DHT22;39986;50.770;0.266;2022-08-19T12:42:39;24.10;99.90
54082;DHT22;39986;50.770;0.266;2022-08-19T12:45:12;25.20;99.90
54082;DHT22;39986;50.770;0.266;2022-08-19T12:47:39;26.70;99.90
54082;DHT22;39986;50.770;0.266;2022-08-19T12:50:05;28.20;99.90
54082;DHT22;39986;50.770;0.266;2022-08-19T12:52:36;28.80;99.90
54082;DHT22;39986;50.770;0.266;2022-08-19T12:55:04;28.70;99.90
54082;DHT22;39986;50.770;0.266;2022-08-19T12:57:33;28.50;99.90
54082;DHT22;39986;50.770;0.266;2022-08-19T13:00:15;28.60;99.90
54082;DHT22;39986;50.770;0.266;2022-08-19T13:02:43;29.30;99.90
54082;DHT22;39986;50.770;0.266;2022-08-19T13:05:14;29.70;99.90
54082;DHT22;39986;50.770;0.266;2022-08-19T13:07:41;29.90;99.90
54082;DHT22;39986;50.770;0.266;2022-08-19T13:10:10;31.10;99.90
54082;DHT22;39986;50.770;0.266;2022-08-19T13:12:37;33.10;99.90
54082;DHT22;39986;50.770;0.266;2022-08-19T13:15:04;34.00;99.90
54082;DHT22;39986;50.770;0.266;2022-08-19T13:17:29;34.90;99.90
54082;DHT22;39986;50.770;0.266;2022-08-19T13:19:55;36.00;99.90
54082;DHT22;39986;50.770;0.266;2022-08-19T13:22:21;36.40;97.40
54082;DHT22;39986;50.770;0.266;2022-08-19T13:24:46;37.40;96.30
54082;DHT22;39986;50.770;0.266;2022-08-19T13:27:13;36.80;96.80
54082;DHT22;39986;50.770;0.266;2022-08-19T13:29:40;35.60;97.90
54082;DHT22;39986;50.770;0.266;2022-08-19T13:32:25;33.90;99.90
54082;DHT22;39986;50.770;0.266;2022-08-19T13:35:09;31.90;99.90
54082;DHT22;39986;50.770;0.266;2022-08-19T13:37:35;30.40;99.90
54082;DHT22;39986;50.770;0.266;2022-08-19T13:40:20;29.50;99.90
54082;DHT22;39986;50.770;0.266;2022-08-19T13:42:49;29.90;99.90
54082;DHT22;39986;50.770;0.266;2022-08-19T13:45:18;32.40;99.90
54082;DHT22;39986;50.770;0.266;2022-08-19T13:47:50;34.20;99.90
54082;DHT22;39986;50.770;0.266;2022-08-19T13:50:19;34.40;99.90
54082;DHT22;39986;50.770;0.266;2022-08-19T13:52:46;33.70;99.90
54082;DHT22;39986;50.770;0.266;2022-08-19T13:55:13;32.50;99.90
54082;DHT22;39986;50.770;0.266;2022-08-19T13:57:39;31.90;99.90
54082;DHT22;39986;50.770;0.266;2022-08-19T14:00:11;31.30;99.90
54082;DHT22;39986;50.770;0.266;2022-08-19T14:02:40;31.00;99.90
54082;DHT22;39986;50.770;0.266;2022-08-19T14:05:09;31.40;99.90
54082;DHT22;39986;50.770;0.266;2022-08-19T14:07:35;33.50;99.90
54082;DHT22;39986;50.770;0.266;2022-08-19T14:10:08;35.90;96.40
54082;DHT22;39986;50.770;0.266;2022-08-19T14:12:34;37.30;93.20
54082;DHT22;39986;50.770;0.266;2022-08-19T14:15:00;38.30;90.80
54082;DHT22;39986;50.770;0.266;2022-08-19T14:17:27;38.90;89.10
54082;DHT22;39986;50.770;0.266;2022-08-19T14:20:02;39.80;86.70
54082;DHT22;39986;50.770;0.266;2022-08-19T14:22:33;41.00;80.00
54082;DHT22;39986;50.770;0.266;2022-08-19T14:24:59;42.30;74.00
54082;DHT22;39986;50.770;0.266;2022-08-19T14:27:25;42.90;69.30
54082;DHT22;39986;50.770;0.266;2022-08-19T14:29:51;43.10;68.10
54082;DHT22;39986;50.770;0.266;2022-08-19T14:32:18;43.70;65.30
54082;DHT22;39986;50.770;0.266;2022-08-19T14:34:43;43.60;62.20
54082;DHT22;39986;50.770;0.266;2022-08-19T14:37:14;43.60;62.30
54082;DHT22;39986;50.770;0.266;2022-08-19T14:39:43;43.80;62.10
54082;DHT22;39986;50.770;0.266;2022-08-19T14:42:12;44.50;59.80
54082;DHT22;39986;50.770;0.266;2022-08-19T14:44:40;44.60;57.40
54082;DHT22;39986;50.770;0.266;2022-08-19T14:47:05;44.30;58.50
54082;DHT22;39986;50.770;0.266;2022-08-19T14:49:33;44.10;58.10
54082;DHT22;39986;50.770;0.266;2022-08-19T14:51:59;42.50;59.10
54082;DHT22;39986;50.770;0.266;2022-08-19T14:54:25;40.50;62.80
54082;DHT22;39986;50.770;0.266;2022-08-19T14:56:51;38.20;66.60
54082;DHT22;39986;50.770;0.266;2022-08-19T14:59:17;35.00;74.20
54082;DHT22;39986;50.770;0.266;2022-08-19T15:01:43;33.90;80.20
54082;DHT22;39986;50.770;0.266;2022-08-19T15:04:10;34.30;81.80
54082;DHT22;39986;50.770;0.266;2022-08-19T15:07:03;35.50;78.20
54082;DHT22;39986;50.770;0.266;2022-08-19T15:09:33;36.40;74.80
54082;DHT22;39986;50.770;0.266;2022-08-19T15:12:01;36.20;74.80
54082;DHT22;39986;50.770;0.266;2022-08-19T15:14:28;35.40;74.10
54082;DHT22;39986;50.770;0.266;2022-08-19T15:17:04;34.70;76.40
54082;DHT22;39986;50.770;0.266;2022-08-19T15:19:31;35.00;76.00
54082;DHT22;39986;50.770;0.266;2022-08-19T15:21:58;34.70;76.00
54082;DHT22;39986;50.770;0.266;2022-08-19T15:24:24;32.70;79.90
54082;DHT22;39986;50.770;0.266;2022-08-19T15:29:17;29.20;92.20
54082;DHT22;39986;50.770;0.266;2022-08-19T15:31:43;28.00;95.30
54082;DHT22;39986;50.770;0.266;2022-08-19T15:34:09;27.30;97.40
54082;DHT22;39986;50.770;0.266;2022-08-19T15:36:35;26.80;99.90
54082;DHT22;39986;50.770;0.266;2022-08-19T15:39:03;26.60;99.90
54082;DHT22;39986;50.770;0.266;2022-08-19T15:41:30;26.30;99.90
54082;DHT22;39986;50.770;0.266;2022-08-19T15:44:00;25.90;99.90
54082;DHT22;39986;50.770;0.266;2022-08-19T15:46:30;25.70;99.90
54082;DHT22;39986;50.770;0.266;2022-08-19T15:48:56;25.40;99.90